Hauptseite
METAR-TAF:

METAR-TAF

Flughäfen :

Bologna, Italien

Flughafen Bologna

Breite: 44-32N, Länge: 011-18E, Höhe: 36 m

Beobachtung

Neuester Wetterbericht von vor 25 Minuten, um 19:20 UTC
Wind 2 kt aus West/Südwest
Temperatur 3°C
Luftfeuchtigkeit 81%
Luftdruck 1014 hPa
Sichtweite: 9000 m

METAR: LIPE 221920Z 24002KT 9000 NSC 03/00 Q1014

Zeit: 20:45 (19:45 UTC)

Prognose

Neuester Wetterbericht von vor 2 Stunden und 45 Minuten, um 17:00 UTC
Gültige Prognose vom 22 um 18 UTC bis 23 um 18 UTC
Wind 5 kt aus unterschiedlichen Richtungen
Sichtweite: 8000 m
Aufgelockert bewölkt in der Höhe von 4000 ft
Zeitweise
vom 22 um 21 UTC bis 23 um 06 UTC
Sichtweite: 4000 m
feuchter Dunst

TAF: LIPE 221700Z 2218/2318 VRB05KT 8000 SCT040 TEMPO 2221/2306 4000 BR

Wetterbeobachtungen und Prognosen von mehr als 4000 Flughäfen (METAR und TAF Bericht).

Die verfügbaren Stationen werden durch gelbe und rote Markierungen auf der Karte dargestellt.

Führen Sie die Maus auf sie, um den Namen der Station zu sehen.

Darauf klicken, um die Beobachtung von Wetterbeobachtungen und Prognosen zu sehen.

Um die Karte zu ändern : klicken Sie auf den grünen Tasten mit einem schwarzen Kreuz Zum Vergrößern, auf den grünen Button mit einem Gedankenstrich zu verkleinern, oder auf die grünen Pfeile für benachbarte Karten.


METAR-TAF: